createdAt,value
2022-11-12T00:01:27.272Z,6.57
2022-11-12T00:04:29.813Z,6.53
2022-11-12T00:07:31.497Z,6.65
2022-11-12T00:10:32.862Z,7.18
2022-11-12T00:13:34.325Z,7.03
2022-11-12T00:16:35.867Z,6.80
2022-11-12T00:19:38.353Z,6.32
2022-11-12T00:22:39.790Z,6.90
2022-11-12T00:25:40.746Z,6.78
2022-11-12T00:28:41.890Z,7.70
2022-11-12T00:31:43.190Z,7.28
2022-11-12T00:34:45.789Z,7.55
2022-11-12T00:37:46.933Z,7.22
2022-11-12T00:40:47.877Z,7.28
2022-11-12T00:43:49.029Z,7.07
2022-11-12T00:46:50.203Z,6.63
2022-11-12T00:49:52.620Z,7.07
2022-11-12T00:52:54.302Z,7.53
2022-11-12T00:56:00.516Z,7.93
2022-11-12T00:59:01.640Z,7.13
2022-11-12T01:02:02.946Z,6.85
2022-11-12T01:05:05.753Z,6.88
2022-11-12T01:08:06.904Z,7.20
2022-11-12T01:11:09.327Z,6.90
2022-11-12T01:14:11.360Z,7.38
2022-11-12T01:17:12.697Z,7.82
2022-11-12T01:20:15.332Z,7.25
2022-11-12T01:23:16.602Z,7.78
2022-11-12T01:26:22.616Z,7.15
2022-11-12T01:29:23.838Z,7.63
2022-11-12T01:32:25.058Z,6.95
2022-11-12T01:35:27.883Z,7.15
2022-11-12T01:38:29.474Z,7.72
2022-11-12T01:41:31.601Z,7.20
2022-11-12T01:44:32.935Z,6.90
2022-11-12T01:47:35.487Z,6.72
2022-11-12T01:50:39.628Z,6.47
2022-11-12T01:53:44.559Z,6.30
2022-11-12T01:56:46.144Z,6.57
2022-11-12T01:59:48.990Z,6.25
2022-11-12T02:02:53.300Z,6.40
2022-11-12T02:05:58.292Z,6.10
2022-11-12T02:08:59.531Z,6.07
2022-11-12T02:12:00.892Z,6.47
2022-11-12T02:15:01.024Z,6.18
2022-11-12T02:18:02.387Z,6.00
2022-11-12T02:21:06.593Z,5.53
2022-11-12T02:24:22.483Z,6.05
2022-11-12T02:27:25.327Z,6.07
2022-11-12T02:30:32.494Z,5.03
2022-11-12T02:33:33.541Z,5.97
2022-11-12T02:36:35.062Z,5.45
2022-11-12T02:39:36.209Z,5.50
2022-11-12T02:42:38.775Z,5.55
2022-11-12T02:45:39.992Z,5.80
2022-11-12T02:48:41.035Z,5.65
2022-11-12T02:51:42.314Z,5.13
2022-11-12T02:54:43.422Z,5.40
2022-11-12T02:57:46.114Z,5.30
2022-11-12T03:00:48.146Z,5.43
2022-11-12T03:03:49.435Z,6.18
2022-11-12T03:06:50.770Z,5.45
2022-11-12T03:09:51.826Z,5.57
2022-11-12T03:12:54.800Z,6.28
2022-11-12T03:15:59.941Z,5.78
2022-11-12T03:19:01.096Z,6.05
2022-11-12T03:22:02.379Z,5.40
2022-11-12T03:25:03.528Z,6.00
2022-11-12T03:28:06.994Z,5.53
2022-11-12T03:31:08.157Z,6.13
2022-11-12T03:34:09.306Z,5.57
2022-11-12T03:37:10.610Z,5.70
2022-11-12T03:40:11.992Z,5.32
2022-11-12T03:43:14.831Z,5.47
2022-11-12T03:46:16.250Z,5.70
2022-11-12T03:49:17.311Z,5.70
2022-11-12T03:52:18.739Z,5.32
2022-11-12T03:55:20.786Z,5.25
2022-11-12T03:58:23.427Z,5.85
2022-11-12T04:01:25.119Z,5.85
2022-11-12T04:04:47.171Z,6.00
2022-11-12T04:08:07.691Z,5.70
2022-11-12T04:11:09.953Z,6.05
2022-11-12T04:14:12.600Z,5.90
2022-11-12T04:17:30.961Z,5.80
2022-11-12T04:21:01.191Z,5.07
2022-11-12T04:24:02.450Z,6.05
2022-11-12T04:27:02.801Z,5.90
2022-11-12T04:30:18.973Z,5.25
2022-11-12T04:33:20.208Z,5.50
2022-11-12T04:36:21.178Z,5.90
2022-11-12T04:39:22.185Z,6.20
2022-11-12T04:42:40.760Z,5.55
2022-11-12T04:45:44.857Z,5.97
2022-11-12T04:48:45.732Z,5.65
2022-11-12T04:52:04.359Z,5.85
2022-11-12T04:55:06.457Z,5.97
2022-11-12T04:58:07.702Z,5.90
2022-11-12T05:01:10.374Z,6.10
2022-11-12T05:04:11.883Z,5.60
2022-11-12T05:07:13.310Z,6.45
2022-11-12T05:10:14.772Z,5.05
2022-11-12T05:13:15.688Z,5.70
2022-11-12T05:16:18.488Z,5.50
2022-11-12T05:19:19.906Z,5.68
2022-11-12T05:22:42.174Z,5.25
2022-11-12T05:25:42.399Z,5.75
2022-11-12T05:28:43.405Z,4.93
2022-11-12T05:31:46.269Z,5.03
2022-11-12T05:34:47.506Z,5.57
2022-11-12T05:37:48.921Z,5.90
2022-11-12T05:40:49.753Z,4.90
2022-11-12T05:43:51.068Z,5.28
2022-11-12T05:46:53.723Z,5.05
2022-11-12T05:49:55.049Z,5.28
2022-11-12T05:52:56.427Z,5.00
2022-11-12T05:56:01.902Z,5.35
2022-11-12T05:59:03.459Z,5.18
2022-11-12T06:02:06.316Z,5.00
2022-11-12T06:05:08.442Z,4.88
2022-11-12T06:08:09.500Z,4.38
2022-11-12T06:11:10.625Z,4.82
2022-11-12T06:14:11.724Z,4.68
2022-11-12T06:17:14.237Z,4.75
2022-11-12T06:20:15.380Z,5.20
2022-11-12T06:23:16.443Z,4.75
2022-11-12T06:26:17.873Z,4.65
2022-11-12T06:29:18.951Z,4.85
2022-11-12T06:32:21.712Z,4.68
2022-11-12T06:35:22.857Z,4.22
2022-11-12T06:38:24.322Z,4.53
2022-11-12T06:41:25.994Z,5.10
2022-11-12T06:44:27.204Z,4.60
2022-11-12T06:47:29.887Z,4.78
2022-11-12T06:50:31.051Z,4.55
2022-11-12T06:53:32.111Z,4.18
2022-11-12T06:56:33.621Z,4.53
2022-11-12T06:59:35.191Z,4.53
2022-11-12T07:02:37.999Z,4.32
2022-11-12T07:05:39.421Z,4.68
2022-11-12T07:08:40.958Z,4.60
2022-11-12T07:11:42.217Z,5.15
2022-11-12T07:14:43.396Z,4.93
2022-11-12T07:17:47.434Z,4.90
2022-11-12T07:20:48.958Z,5.18
2022-11-12T07:23:50.802Z,4.65
2022-11-12T07:26:51.876Z,5.25
2022-11-12T07:29:53.015Z,4.90
2022-11-12T07:32:58.439Z,5.53
2022-11-12T07:36:00.916Z,5.20
2022-11-12T07:39:01.954Z,5.20
2022-11-12T07:42:03.256Z,5.18
2022-11-12T07:45:04.587Z,5.50
2022-11-12T07:48:07.711Z,5.45
2022-11-12T07:51:12.769Z,6.47
2022-11-12T07:54:14.442Z,6.00
2022-11-12T07:57:15.626Z,5.68
2022-11-12T08:00:17.072Z,6.03
2022-11-12T08:03:19.999Z,6.20
2022-11-12T08:06:21.605Z,6.35
2022-11-12T08:09:23.026Z,5.63
2022-11-12T08:12:24.257Z,5.38
2022-11-12T08:15:25.431Z,5.63
2022-11-12T08:18:28.543Z,6.00
2022-11-12T08:21:30.265Z,5.90
2022-11-12T08:24:31.473Z,6.40
2022-11-12T08:27:32.550Z,6.32
2022-11-12T08:30:33.597Z,6.18
2022-11-12T08:33:36.232Z,5.47
2022-11-12T08:36:37.243Z,5.82
2022-11-12T08:39:38.422Z,5.93
2022-11-12T08:42:40.238Z,6.72
2022-11-12T08:45:42.137Z,6.13
2022-11-12T08:48:44.999Z,6.30
2022-11-12T08:51:46.802Z,6.40
2022-11-12T08:54:48.122Z,7.05
2022-11-12T08:57:49.893Z,6.72
2022-11-12T09:00:51.175Z,6.93
2022-11-12T09:03:53.863Z,5.88
2022-11-12T09:06:55.444Z,6.10
2022-11-12T09:09:56.715Z,6.93
2022-11-12T09:12:58.199Z,6.28
2022-11-12T09:16:03.618Z,6.32
2022-11-12T09:19:06.317Z,6.57
2022-11-12T09:22:07.777Z,6.53
2022-11-12T09:25:09.614Z,6.55
2022-11-12T09:28:11.576Z,6.47
2022-11-12T09:31:12.955Z,6.28
2022-11-12T09:34:15.824Z,7.03
2022-11-12T09:37:17.099Z,7.22
2022-11-12T09:40:19.873Z,6.57
2022-11-12T09:43:23.489Z,6.30
2022-11-12T09:46:28.803Z,6.10
2022-11-12T09:49:33.870Z,7.10
2022-11-12T09:52:35.072Z,6.40
2022-11-12T09:55:38.685Z,6.90
2022-11-12T09:58:40.034Z,6.68
2022-11-12T10:01:50.554Z,6.38
2022-11-12T10:04:58.188Z,6.70
2022-11-12T10:08:21.308Z,6.47
2022-11-12T10:11:52.190Z,6.30
2022-11-12T10:15:22.402Z,6.30
2022-11-12T10:18:30.247Z,6.18
2022-11-12T10:21:36.242Z,6.20
2022-11-12T10:24:38.141Z,6.25
2022-11-12T10:27:40.974Z,6.75
2022-11-12T10:30:43.925Z,5.70
2022-11-12T10:33:45.232Z,6.57
2022-11-12T10:36:50.019Z,5.93
2022-11-12T10:39:51.690Z,5.95
2022-11-12T10:42:57.227Z,5.80
2022-11-12T10:46:13.457Z,6.18
2022-11-12T10:49:24.291Z,5.68
2022-11-12T10:52:27.110Z,5.70
2022-11-12T10:55:29.129Z,5.93
2022-11-12T10:58:30.645Z,5.82
2022-11-12T11:01:35.691Z,5.45
2022-11-12T11:04:38.682Z,5.43
2022-11-12T11:07:50.670Z,5.60
2022-11-12T11:11:09.778Z,5.63
2022-11-12T11:14:25.222Z,5.45
2022-11-12T11:17:26.628Z,5.50
2022-11-12T11:20:31.951Z,5.40
2022-11-12T11:23:37.086Z,5.15
2022-11-12T11:26:43.612Z,5.18
2022-11-12T11:30:01.446Z,4.80
2022-11-12T11:33:16.287Z,4.97
2022-11-12T11:36:20.558Z,4.50
2022-11-12T11:39:26.248Z,4.53
2022-11-12T11:42:40.089Z,4.30
2022-11-12T11:45:51.585Z,4.18
2022-11-12T11:48:59.379Z,4.75
2022-11-12T11:52:04.051Z,4.50
2022-11-12T11:55:10.519Z,4.78
2022-11-12T11:58:15.726Z,3.95
2022-11-12T12:01:21.786Z,3.38
2022-11-12T12:04:34.709Z,4.32
2022-11-12T12:07:39.157Z,3.55
2022-11-12T12:14:26.198Z,3.47
2022-11-12T12:17:33.472Z,3.92
2022-11-12T12:20:39.863Z,3.15
2022-11-12T12:23:42.959Z,3.53
2022-11-12T12:26:47.869Z,3.78
2022-11-12T12:29:52.070Z,3.33
2022-11-12T12:32:56.902Z,3.20
2022-11-12T12:36:00.831Z,3.75
2022-11-12T12:39:14.061Z,3.95
2022-11-12T12:42:21.482Z,4.15
2022-11-12T12:45:35.753Z,4.05
2022-11-12T12:48:39.874Z,4.10
2022-11-12T12:51:41.094Z,3.92
2022-11-12T12:54:58.628Z,4.38
2022-11-12T12:58:01.233Z,4.25
2022-11-12T13:01:04.174Z,3.60
2022-11-12T13:04:08.699Z,3.63
2022-11-12T13:07:11.087Z,4.05
2022-11-12T13:10:39.221Z,3.90
2022-11-12T13:13:41.750Z,3.53
2022-11-12T13:16:59.352Z,4.15
2022-11-12T13:20:21.587Z,3.63
2022-11-12T13:24:01.320Z,3.55
2022-11-12T13:27:02.442Z,3.40
2022-11-12T13:30:08.290Z,3.97
2022-11-12T13:33:22.593Z,3.65
2022-11-12T13:36:27.914Z,3.35
2022-11-12T13:39:29.597Z,3.55
2022-11-12T13:42:48.032Z,3.35
2022-11-12T13:45:53.938Z,3.35
2022-11-12T13:48:59.481Z,3.40
2022-11-12T13:52:00.787Z,4.07
2022-11-12T13:55:02.141Z,4.25
2022-11-12T13:58:03.380Z,3.20
2022-11-12T14:01:06.662Z,3.35
2022-11-12T14:04:08.362Z,4.25
2022-11-12T14:07:18.696Z,3.53
2022-11-12T14:10:26.609Z,3.47
2022-11-12T14:13:36.714Z,4.38
2022-11-12T14:16:44.490Z,5.13
2022-11-12T14:20:03.867Z,3.80
2022-11-12T14:23:06.023Z,3.40
2022-11-12T14:26:07.093Z,3.63
2022-11-12T14:29:08.648Z,3.78
2022-11-12T14:32:11.421Z,3.85
2022-11-12T14:35:33.977Z,4.20
2022-11-12T14:38:38.385Z,3.63
2022-11-12T14:41:46.013Z,3.92
2022-11-12T14:44:47.420Z,3.95
2022-11-12T14:47:50.745Z,4.47
2022-11-12T14:50:56.679Z,4.22
2022-11-12T14:53:59.977Z,5.00
2022-11-12T14:57:03.699Z,4.90
2022-11-12T15:00:18.869Z,4.40
2022-11-12T15:03:22.539Z,4.88
2022-11-12T15:06:29.868Z,4.40
2022-11-12T15:09:35.529Z,4.93
2022-11-12T15:12:37.246Z,5.28
2022-11-12T15:15:39.601Z,4.60
2022-11-12T15:18:42.294Z,5.18
2022-11-12T15:21:47.660Z,5.43
2022-11-12T15:24:49.688Z,5.05
2022-11-12T15:27:51.535Z,5.68
2022-11-12T15:31:01.416Z,7.68
2022-11-12T15:34:17.312Z,6.45
2022-11-12T15:37:25.569Z,7.10
2022-11-12T15:40:27.491Z,7.07
2022-11-12T15:43:30.421Z,7.57
2022-11-12T15:46:32.547Z,6.57
2022-11-12T15:49:35.188Z,7.20
2022-11-12T15:52:37.754Z,7.10
2022-11-12T15:55:39.851Z,6.22
2022-11-12T15:58:41.401Z,7.68
2022-11-12T16:01:43.167Z,11.60
2022-11-12T16:04:44.819Z,11.15
2022-11-12T16:07:47.768Z,11.25
2022-11-12T16:10:49.295Z,10.57
2022-11-12T16:13:50.352Z,10.38
2022-11-12T16:16:51.674Z,9.32
2022-11-12T16:19:53.036Z,9.48
2022-11-12T16:22:55.759Z,8.15
2022-11-12T16:25:56.995Z,8.63
2022-11-12T16:28:58.626Z,8.73
2022-11-12T16:31:59.704Z,7.85
2022-11-12T16:35:01.589Z,7.90
2022-11-12T16:38:04.437Z,9.30
2022-11-12T16:41:06.018Z,11.25
2022-11-12T16:44:07.380Z,17.58
2022-11-12T16:47:11.854Z,16.70
2022-11-12T16:50:13.719Z,14.30
2022-11-12T16:53:16.136Z,12.60
2022-11-12T16:56:19.421Z,12.88
2022-11-12T16:59:20.954Z,13.40
2022-11-12T17:02:22.232Z,12.68
2022-11-12T17:05:24.881Z,15.70
2022-11-12T17:08:33.666Z,14.20
2022-11-12T17:11:35.875Z,10.40
2022-11-12T17:14:37.261Z,10.18
2022-11-12T17:17:38.682Z,10.05
2022-11-12T17:20:40.185Z,10.23
2022-11-12T17:23:43.696Z,10.00
2022-11-12T17:26:45.214Z,9.85
2022-11-12T17:29:46.928Z,10.38
2022-11-12T17:32:49.053Z,10.10
2022-11-12T17:35:50.429Z,10.60
2022-11-12T17:38:56.287Z,11.07
2022-11-12T17:41:57.555Z,10.82
2022-11-12T17:44:58.857Z,12.45
2022-11-12T17:48:00.609Z,13.85
2022-11-12T17:51:05.775Z,14.30
2022-11-12T17:54:08.562Z,11.55
2022-11-12T17:57:10.403Z,12.73
2022-11-12T18:00:12.600Z,10.10
2022-11-12T18:03:13.617Z,9.10
2022-11-12T18:06:17.143Z,10.68
2022-11-12T18:09:19.845Z,9.95
2022-11-12T18:12:20.957Z,9.95
2022-11-12T18:15:22.307Z,9.85
2022-11-12T18:18:23.228Z,9.57
2022-11-12T18:21:24.889Z,8.43
2022-11-12T18:24:27.627Z,8.93
2022-11-12T18:27:28.974Z,8.98
2022-11-12T18:30:30.269Z,8.77
2022-11-12T18:33:32.091Z,8.80
2022-11-12T18:36:33.522Z,8.05
2022-11-12T18:39:36.201Z,9.13
2022-11-12T18:42:37.569Z,9.25
2022-11-12T18:45:39.352Z,11.60
2022-11-12T18:48:41.447Z,11.40
2022-11-12T18:51:42.334Z,10.48
2022-11-12T18:54:44.744Z,10.20
2022-11-12T18:57:45.988Z,9.77
2022-11-12T19:00:47.141Z,7.72
2022-11-12T19:03:48.585Z,8.02
2022-11-12T19:06:49.772Z,7.43
2022-11-12T19:09:52.521Z,7.95
2022-11-12T19:12:53.593Z,8.80
2022-11-12T19:15:54.691Z,16.00
2022-11-12T19:18:56.180Z,13.70
2022-11-12T19:21:57.911Z,14.10
2022-11-12T19:25:02.460Z,13.80
2022-11-12T19:28:03.926Z,10.80
2022-11-12T19:31:06.088Z,11.18
2022-11-12T19:34:07.414Z,9.32
2022-11-12T19:37:32.261Z,10.20
2022-11-12T19:40:31.828Z,9.20
2022-11-12T19:43:32.905Z,9.35
2022-11-12T19:46:34.227Z,8.48
2022-11-12T19:49:35.904Z,8.52
2022-11-12T19:52:37.359Z,7.65
2022-11-12T19:55:40.214Z,7.05
2022-11-12T19:58:45.298Z,6.85
2022-11-12T20:01:46.620Z,6.70
2022-11-12T20:04:47.668Z,6.30
2022-11-12T20:07:50.552Z,6.32
2022-11-12T20:10:52.818Z,6.75
2022-11-12T20:13:54.272Z,7.05
2022-11-12T20:16:55.549Z,6.53
2022-11-12T20:19:56.684Z,6.25
2022-11-12T20:22:59.473Z,6.25
2022-11-12T20:26:06.341Z,7.25
2022-11-12T20:29:07.881Z,6.50
2022-11-12T20:32:09.139Z,7.55
2022-11-12T20:35:16.457Z,8.00
2022-11-12T20:38:21.032Z,7.57
2022-11-12T20:41:24.705Z,8.25
2022-11-12T20:44:25.781Z,7.93
2022-11-12T20:47:27.160Z,7.75
2022-11-12T20:50:28.325Z,7.53
2022-11-12T20:53:29.519Z,7.47
2022-11-12T20:56:32.505Z,8.32
2022-11-12T20:59:33.587Z,7.28
2022-11-12T21:02:34.963Z,7.15
2022-11-12T21:05:36.154Z,6.68
2022-11-12T21:08:37.146Z,7.40
2022-11-12T21:11:39.969Z,7.63
2022-11-12T21:14:45.976Z,7.53
2022-11-12T21:17:53.567Z,7.20
2022-11-12T21:21:01.091Z,7.25
2022-11-12T21:24:05.115Z,7.32
2022-11-12T21:27:08.226Z,7.45
2022-11-12T21:30:10.656Z,7.57
2022-11-12T21:33:12.844Z,7.40
2022-11-12T21:36:16.518Z,7.35
2022-11-12T21:39:18.142Z,8.23
2022-11-12T21:42:20.910Z,7.72
2022-11-12T21:45:22.177Z,7.53
2022-11-12T21:48:23.910Z,8.60
2022-11-12T21:51:26.106Z,7.90
2022-11-12T21:54:27.491Z,7.45
2022-11-12T21:57:30.474Z,7.72
2022-11-12T22:00:46.871Z,8.73
2022-11-12T22:03:48.510Z,7.13
2022-11-12T22:06:49.999Z,7.47
2022-11-12T22:09:56.577Z,7.35
2022-11-12T22:13:25.330Z,6.93
2022-11-12T22:16:22.686Z,7.78
2022-11-12T22:19:24.098Z,7.63
2022-11-12T22:22:25.478Z,6.70
2022-11-12T22:25:26.974Z,7.43
2022-11-12T22:28:30.164Z,7.78
2022-11-12T22:31:33.057Z,6.07
2022-11-12T22:34:34.387Z,5.72
2022-11-12T22:37:35.355Z,6.30
2022-11-12T22:40:36.477Z,6.18
2022-11-12T22:43:38.944Z,5.65
2022-11-12T22:46:40.352Z,6.40
2022-11-12T22:49:41.354Z,5.50
2022-11-12T22:52:48.832Z,6.15
2022-11-12T22:55:51.328Z,6.00
2022-11-12T22:58:54.041Z,6.38
2022-11-12T23:01:55.515Z,6.25
2022-11-12T23:04:56.826Z,6.20
2022-11-12T23:07:58.507Z,6.75
2022-11-12T23:11:02.936Z,6.10
2022-11-12T23:14:05.840Z,6.57
2022-11-12T23:17:06.955Z,6.40
2022-11-12T23:20:08.683Z,6.50
2022-11-12T23:23:09.986Z,6.22
2022-11-12T23:26:12.479Z,6.30
2022-11-12T23:29:15.183Z,5.90
2022-11-12T23:32:16.530Z,5.65
2022-11-12T23:35:17.666Z,5.72
2022-11-12T23:38:19.048Z,6.20
2022-11-12T23:41:22.724Z,6.18
2022-11-12T23:44:25.119Z,5.50
2022-11-12T23:47:26.196Z,5.65
2022-11-12T23:50:27.523Z,6.60
2022-11-12T23:53:28.453Z,6.50
2022-11-12T23:56:29.882Z,6.40
2022-11-12T23:59:32.361Z,6.53
